Tiempo atmosférico en la estación meteorológica de Fuerteventura Aeropuerto, Las Palmas (25 m.)



Fecha
DESCASC
Temp. máxima en grados centígrados (hora)
DESCASC
Temp. mínima en grados centígrados (hora)
DESCASC
Temp. media en grados centígrados
DESCASC
Racha de viento máxima en m/sg (hora)
DESCASC
Velocidad máxima media en intervalos de 10 minutos(hora)
DESCASC
Precipitaciones diarias en mm
DESCASC
Precipitaciones de 00:00 a 06:00 en mm
DESCASC
Precipitaciones de 06:00 a 12:00 en mm
DESCASC
Precipitaciones de 12:00 a 18:00 en mm
DESCASC
Precipitaciones de 18:00 a 24:00 en mm
DESCASC
31-03-2020 25.5 (14:40) 15.7 (07:50) 20.6 10.83 (13:10) 6.94 (17:30) 0 0 0 0 0
30-03-2020 23.1 (17:40) 13.3 (06:50) 18.2 14.44 (20:30) 8.33 (20:30) 0 0 0 0 0
29-03-2020 20.9 (13:20) 13.6 (00:00) 17.3 6.11 (13:20) 4.17 (12:10) 0 0 0 0 0
28-03-2020 21.1 (11:50) 15.5 (00:00) 18.3 7.22 (04:50) 5.83 (12:20) 0 0 0 0 0
27-03-2020 23.7 (14:10) 15.1 (00:00) 19.4 16.94 (12:00) 7.78 (14:50) 0 0 0 0 0
26-03-2020 21.8 (13:20) 12.7 (00:00) 17.2 12.5 (14:50) 7.22 (17:50) 0 0 0 0 0
25-03-2020 22 (14:00) 15.2 (00:00) 18.6 9.72 (14:10) 8.06 (15:10) 0 0 0 0 0
24-03-2020 23 (13:20) 15.8 (00:00) 19.4 15 (11:10) 10.28 (18:00) 0 0 0 0 0
23-03-2020 20.4 (16:00) 13.2 (00:00) 16.8 15.28 (16:40) 11.39 (13:10) 1.6 0 0.1 1.5 0
22-03-2020 22.3 (13:50) 15.1 (21:00) 18.7 15 (18:30) 8.89 (18:30) 6.1 0 0 0 6.1
21-03-2020 21.7 (15:10) 16 (00:00) 18.9 16.39 (16:00) 10 (10:20) 0 0 0 0 0
20-03-2020 23.3 (14:00) 17.1 (00:00) 20.2 12.5 (06:10) 9.72 (17:10) 0 0 0 0 0
19-03-2020 23 (15:10) 16.2 (00:00) 19.6 15.28 (04:00) 10.56 (01:00) 4.2 3.3 0.9 0 0
18-03-2020 21.7 (15:50) 15 (00:00) 18.4 16.39 (12:50) 10.56 (15:10) 0.2 0 0.2 0 0
17-03-2020 21.1 (15:30) 14.6 (00:00) 17.9 16.39 (02:50) 12.22 (06:30) 0 0 0 0 0
16-03-2020 22.5 (12:00) 17 (00:00) 19.8 16.94 (21:30) 13.33 (23:59) 0 0 0 0 0
15-03-2020 22.4 (16:10) 15.4 (00:00) 18.9 13.89 (16:20) 9.44 (14:50) 0 0 0 0 0
14-03-2020 22.2 (14:20) 16.8 (00:00) 19.5 12.5 (09:40) 9.44 (09:40) 0 0 0 0 0
13-03-2020 21.5 (13:00) 17.4 (05:40) 19.4 12.5 (21:50) 10 (21:50) 0 0 0 0 0
12-03-2020 22.1 (12:20) 16.2 (00:00) 19.2 9.17 (23:59) 7.22 (23:59) 0 0 0 0 0
11-03-2020 21.3 (15:10) 16.3 (00:00) 18.8 8.89 (18:50) 6.94 (18:50) 0 0 0 0 0
10-03-2020 21.6 (15:40) 15.6 (00:00) 18.6 10.28 (00:10) 8.33 (01:50) 0 0 0 0 0
09-03-2020 22 (15:10) 16.1 (00:00) 19.1 11.39 (00:20) 8.61 (00:20) 0 0 0 0 0
08-03-2020 22.1 (14:50) 17 (00:00) 19.6 11.39 (23:40) 8.89 (23:40) 0 0 0 0 0
07-03-2020 21.6 (15:20) 17 (00:00) 19.3 16.39 (00:10) 13.06 (03:30) 0 0 0 0 0
06-03-2020 21.4 (12:40) 16.9 (00:00) 19.1 18.61 (09:20) 15 (10:10) 0.1 0.1 0 0 0
05-03-2020 21.8 (14:30) 17.4 (00:00) 19.6 15 (21:30) 11.94 (23:50) 0 0 0 0 0
04-03-2020 22.6 (13:10) 16.3 (00:00) 19.4 10.28 (03:30) 7.22 (17:10) 0 0 0 0 0
03-03-2020 21.6 (13:20) 16.5 (00:00) 19.1 11.39 (07:50) 8.61 (07:50) 0 0 0 0 0
02-03-2020 22.4 (14:30) 17.4 (00:00) 19.9 11.39 (17:10) 8.61 (17:40) 0 0 0 0 0

Gráficas

Temp. máximas Temp. mínimas Temp. medias Precipitaciones Rachas de viento máximas Velocidades máximas media en intervalos de 10 minutos

Datos horarios

Fecha y hora oficial Temperatura (ºC) Velocidad del viento (km/h) Dirección del viento Racha (km/h) Dirección de racha Precipitación (mm) Presión (hPa) Tendencia (hPa) Humedad (%)
2020-03-31 23:00:00 19.3 10 Noroeste 15 Norte 0 1013.3 1.8 66
2020-03-31 22:00:00 19.9 11 Norte 21 Noroeste 0 1013.1 1.9 65
2020-03-31 21:00:00 20.1 13 Oeste 21 Oeste 0 1012 1.1 66
2020-03-31 20:00:00 20.8 19 Oeste 32 Oeste 0 1011.5 0.9 61
2020-03-31 19:00:00 22.1 19 Oeste 32 Oeste 0 1011.2 0.7 55
2020-03-31 18:00:00 23.3 20 Noroeste 35 Noroeste 0 1010.9 0.2 49
2020-03-31 17:00:00 24 19 Noroeste 37 Noroeste 0 1010.6 -0.2 48
2020-03-31 16:00:00 22.7 8 Sur 32 Oeste 0 1010.5 -0.4 67
2020-03-31 15:00:00 25 22 Noroeste 37 Oeste 0 1010.7 -0.3 43
2020-03-31 14:00:00 23.4 13 Oeste 39 Noroeste 0 1010.8 0 51
2020-03-31 13:00:00 23 17 Noroeste 32 Oeste 0 1010.9 0.5 53
2020-03-31 12:00:00 22.3 17 Noroeste 30 Noroeste 0 1011 0.9 58
2020-03-31 11:00:00 21.6 16 Oeste 28 Oeste 0 1010.8 1.1 60
2020-03-31 10:00:00 19.4 6 Sudeste 13 Sudeste 0 1010.4 0.9 74
2020-03-31 09:00:00 18.1 2 Este 11 Noroeste 0 1010.1 0.7 81
2020-03-31 08:00:00 15.8 10 Noroeste 13 Noroeste 0 1009.7 0.7 85
2020-03-31 07:00:00 16.8 9 Oeste 17 Oeste 0 1009.5 0.3 79
2020-03-31 06:00:00 17.9 12 Oeste 17 Sudoeste 0 1009.4 -0.2 79
2020-03-31 05:00:00 17.9 4 Oeste 13 Sudoeste 0 1009 -1.1 79
2020-03-31 04:00:00 17.6 5 Sur 11 Sur 0 1009.2 -1.2 79
2020-03-31 03:00:00 17.6 0 Calma 9 Oeste 0 1009.6 -1.1 76
2020-03-31 02:00:00 17.4 4 Sudoeste 9 Sudeste 0 1010.1 -0.8 74
2020-03-31 01:00:00 17.7 6 Sur 18 Sur 0 1010.4 -0.3 73
2020-03-31 00:00:00 18.4 9 Sudeste 13 Sudeste 0 1010.7 0.5 75
2020-03-30 23:00:00 18.8 10 Noroeste 22 Noroeste 0 1010.9 1 76
2020-03-30 22:00:00 18.8 8 Noroeste 30 Oeste 0 1010.7 1.2 73
2020-03-30 21:00:00 19.2 23 Oeste 52 Oeste 0 1010.2 0.8 69
2020-03-30 20:00:00 20.2 24 Oeste 39 Oeste 0 1009.9 0.1 65
2020-03-30 19:00:00 21.8 18 Noroeste 35 Oeste 0 1009.5 -1.3 60
2020-03-30 18:00:00 22.6 28 Noroeste 39 Noroeste 0 1009.4 -1.6 56
2020-03-30 17:00:00 21.3 10 Este 26 Sudeste 0 1009.8 -1.9 69
2020-03-30 16:00:00 20.7 17 Sudeste 28 Sudeste 0 1010.8 -1.6 73
2020-03-30 15:00:00 20.3 20 Sudeste 26 Sudeste 0 1011 -2.1 70
2020-03-30 14:00:00 21.3 21 Sudeste 26 Sudeste 0 1011.7 -1.3 65
2020-03-30 13:00:00 20.8 20 Sudeste 26 Sudeste 0 1012.4 -0.3 66
2020-03-30 12:00:00 20.1 17 Sudeste 24 Sudeste 0 1013.1 0.8 68
2020-03-30 11:00:00 19.9 10 Noroeste 18 Oeste 0 1013 1 65
2020-03-30 10:00:00 18.5 8 Sur 15 Sudoeste 0 1012.7 0.8 74
2020-03-30 09:00:00 16.1 6 Oeste 11 Oeste 0 1012.3 0.2 81
2020-03-30 08:00:00 13.7 9 Oeste 13 Oeste 0 1012 -0.4 84
2020-03-30 07:00:00 13.4 12 Oeste 15 Noroeste 0 1011.9 -1.1 84
2020-03-30 06:00:00 13.8 8 Oeste -- -- 0 1012.1 -1.6 81
2020-03-30 05:00:00 14.1 13 Oeste 15 Oeste 0 1012.4 -1.7 81
2020-03-30 04:00:00 14.7 10 Oeste -- -- 0 1013 -1.6 78
2020-03-30 03:00:00 15.3 11 Oeste 13 Oeste 0 1013.7 -1.4 76
2020-03-30 02:00:00 15.4 11 Noroeste 13 Noroeste 0 1014.1 -1.2 75
2020-03-30 01:00:00 15.9 10 Noroeste 13 Noroeste 0 1014.6 -0.3 73
2020-03-30 00:00:00 16.7 5 Oeste 9 Oeste 0 1015.1 0.7 70
2020-03-29 23:00:00 17.6 8 Noroeste 13 Norte 0 1015.3 0.9 66
2020-03-29 22:00:00 18.2 8 Noroeste 17 Noroeste 0 1014.9 0.5 64
2020-03-29 21:00:00 18.4 2 Este 11 Sudeste 0 1014.4 -0.1 69
2020-03-29 20:00:00 19 5 Sudeste 11 Sudeste 0 1014.4 -0.3 67
2020-03-29 19:00:00 19.1 8 Sudeste 13 Este 0 1014.4 -0.4 66
2020-03-29 18:00:00 19.4 9 Sudeste 15 Sudeste 0 1014.5 -1 66
2020-03-29 17:00:00 19.8 9 Este 17 Sudeste 0 1014.7 -1.4 64
2020-03-29 16:00:00 20 11 Sudeste 17 Este 0 1014.8 -1.5 63
2020-03-29 15:00:00 20.1 11 Sudeste 21 Este 0 1015.5 -1 64
2020-03-29 14:00:00 20.5 15 Este 22 Este 0 1016.1 -0.7 62
2020-03-29 13:00:00 20.2 13 Este 21 Este 0 1016.3 -0.1 63
2020-03-29 12:00:00 19.9 14 Este 21 Este 0 1016.5 0.4 66
2020-03-29 11:00:00 19.1 11 Nordeste 15 Nordeste 0 1016.8 1.2 69
2020-03-29 10:00:00 18 6 Norte 11 Noroeste 0 1016.4 1.2 73
2020-03-29 09:00:00 15.8 9 Oeste 15 Noroeste 0 1016.1 1.1 82
2020-03-29 08:00:00 13.6 13 Noroeste 15 Noroeste 0 1015.6 0.5 86
2020-03-29 07:00:00 13.8 11 Noroeste 15 Noroeste 0 1015.2 -0.1 84
2020-03-29 06:00:00 14.2 12 Noroeste 15 Noroeste 0 1015 -1.1 83
2020-03-29 05:00:00 14.8 13 Noroeste 17 Noroeste 0 1015.1 -1.3 81
2020-03-29 04:00:00 15.9 13 Noroeste 17 Noroeste 0 1015.3 -1.3 78
2020-03-29 00:00:00 16.9 13 Noroeste 17 Noroeste 0 1016.6 0.8 75
2020-03-28 23:00:00 17.4 11 Noroeste 15 Noroeste 0 1016.7 1.5 74
2020-03-28 22:00:00 18.1 10 Norte 21 Norte 0 1016.7 2 70
2020-03-28 21:00:00 18.5 15 Noroeste 21 Noroeste 0 1015.8 1.5 70
2020-03-28 20:00:00 18.9 12 Nordeste 15 Nordeste 0 1015.2 1.4 73
2020-03-28 19:00:00 18.9 7 Nordeste 11 Nordeste 0 1014.7 1.3 72
2020-03-28 18:00:00 19.1 4 Nordeste 11 Este 0 1014.3 0.8 71
2020-03-28 17:00:00 19.3 5 Este 11 Sudeste 0 1013.8 0 70
2020-03-28 16:00:00 19.4 8 Este 15 Este 0 1013.4 -0.3 69
2020-03-28 15:00:00 19.5 10 Nordeste 17 Este 0 1013.5 -0.5 68
2020-03-28 14:00:00 19.6 13 Este 24 Este 0 1013.8 -0.5 66
2020-03-28 13:00:00 20.1 20 Este 26 Este 0 1013.7 -0.3 64
2020-03-28 12:00:00 20.7 18 Este 26 Este 0 1014 0.3 62
2020-03-28 11:00:00 20.6 20 Nordeste 24 Nordeste 0 1014.3 1.2 61
2020-03-28 10:00:00 19.7 13 Nordeste 18 Nordeste 0 1014 1.5 66
2020-03-28 09:00:00 18.7 11 Norte 17 Norte 0 1013.7 1.8 68
2020-03-28 08:00:00 16.9 12 Noroeste 18 Noroeste 0 1013.1 1.8 76
2020-03-28 07:00:00 16 12 Noroeste 17 Oeste 0 1012.5 1.4 80
2020-03-28 06:00:00 15.8 11 Oeste 18 Noroeste 0 1011.9 0.7 82
2020-03-28 05:00:00 15.9 13 Noroeste 26 Oeste 0 1011.3 -0.3 83
2020-03-28 04:00:00 15.7 12 Oeste 17 Oeste 0 1011.1 -0.7 80
2020-03-28 03:00:00 16.3 13 Oeste 17 Oeste 0 1011.2 -1.1 78
2020-03-28 02:00:00 16.1 10 Oeste 17 Oeste 0 1011.6 -0.5 79
2020-03-28 01:00:00 16.4 14 Oeste 17 Oeste 0 1011.8 0.1 77
2020-03-28 00:00:00 16.7 11 Oeste 15 Oeste 0 1012.3 0.7 75
2020-03-27 23:00:00 17.1 10 Oeste 13 Oeste 0 1012.1 1.4 71
2020-03-27 22:00:00 17.8 8 Noroeste 17 Noroeste 0 1011.7 1.6 69
2020-03-27 21:00:00 18.3 13 Noroeste 18 Noroeste 0 1011.6 1.9 69
2020-03-27 20:00:00 19.1 15 Noroeste 28 Oeste 0 1010.7 1.1 64
2020-03-27 19:00:00 20.3 18 Noroeste 28 Noroeste 0 1010.1 0.6 57
2020-03-27 18:00:00 21.1 23 Oeste 32 Oeste 0 1009.7 0.2 54
2020-03-27 17:00:00 22 19 Oeste 33 Oeste 0 1009.6 -0.1 49
2020-03-27 16:00:00 22.6 22 Noroeste 41 Oeste 0 1009.5 -1 46
2020-03-27 15:00:00 23 28 Oeste 41 Oeste 0 1009.5 -1.4 47
2020-03-27 14:00:00 22.9 19 Noroeste 42 Oeste 0 1009.7 -1.3 44
2020-03-27 13:00:00 22.3 22 Oeste 41 Oeste 0 1010.5 -0.1 46
2020-03-27 12:00:00 21.9 23 Oeste 61 Oeste 0 1010.9 0.7 46
2020-03-27 11:00:00 20.9 25 Noroeste 37 Oeste 0 1011 1 53
2020-03-27 10:00:00 20.1 22 Noroeste 32 Noroeste 0 1010.6 1.1 54
2020-03-27 09:00:00 18.6 15 Noroeste 22 Noroeste 0 1010.2 1 64
2020-03-27 08:00:00 16.7 4 Oeste 13 Oeste 0 1010 1 78
2020-03-27 07:00:00 15.5 10 Noroeste 17 Noroeste 0 1009.5 0.1 82
2020-03-27 06:00:00 15.8 9 Noroeste 18 Oeste 0 1009.2 -0.4 82
2020-03-27 05:00:00 15.9 10 Noroeste 17 Noroeste 0 1009 -1.4 79
2020-03-27 04:00:00 15.6 9 Noroeste 13 Noroeste 0 1009.4 -1.3 80
2020-03-27 03:00:00 15.8 8 Noroeste 15 Noroeste 0 1009.6 -1.3 78
2020-03-27 02:00:00 16.5 12 Oeste 15 Noroeste 0 1010.4 -0.7 76
2020-03-27 01:00:00 15.8 6 Oeste 9 Oeste 0 1010.7 -0.3 73
2020-03-27 00:00:00 16.1 6 Noroeste 15 Noroeste 0 1010.9 0 72
2020-03-26 23:00:00 17 11 Noroeste 17 Norte 0 1011.1 0.5 70
2020-03-26 22:00:00 17.5 14 Norte 21 Noroeste 0 1011 0.7 69
2020-03-26 21:00:00 17.9 15 Norte -- -- -- 1010.9 0.8 66
2020-03-26 20:00:00 18.4 17 Noroeste 26 Noroeste 0 1010.6 0.8 61
2020-03-26 19:00:00 19.5 18 Noroeste 30 Noroeste 0 1010.3 0 53
2020-03-26 18:00:00 20.9 24 Oeste 39 Noroeste 0 1010.1 -0.5 49
2020-03-26 17:00:00 20.9 23 Oeste 35 Oeste 0 1009.8 -1.1 48
2020-03-26 16:00:00 19.7 14 Sudeste 26 Sudeste 0 1010.3 -1.4 62
2020-03-26 15:00:00 19.6 21 Sur 45 Sudoeste 0 1010.6 -1.7 61
2020-03-26 14:00:00 21.6 21 Nordeste 30 Nordeste 0 1010.9 -1.6 56
2020-03-26 13:00:00 21 15 Nordeste 26 Nordeste 0 1011.7 -0.8 53
2020-03-26 12:00:00 20.3 19 Nordeste 26 Nordeste 0 1012.3 -0.1 59
2020-03-26 11:00:00 20.2 21 Nordeste 28 Nordeste 0 1012.5 0.4 59
2020-03-26 10:00:00 19.4 15 Norte 26 Nordeste 0 1012.5 0.8 60
2020-03-26 09:00:00 17.8 13 Norte 21 Norte 0 1012.4 1 69
2020-03-26 08:00:00 14.7 11 Oeste 17 Noroeste 0 1012.1 0.9 76
2020-03-26 07:00:00 12.9 13 Noroeste 17 Noroeste 0 1011.7 0.5 78
2020-03-26 06:00:00 12.8 13 Noroeste 18 Noroeste 0 1011.4 -0.3 79
2020-03-26 05:00:00 13.6 13 Noroeste 15 Noroeste 0 1011.2 -1.2 77
2020-03-26 04:00:00 14 13 Noroeste 15 Noroeste 0 1011.2 -1.6 78
2020-03-26 03:00:00 15.1 11 Noroeste 17 Noroeste 0 1011.7 -1.8 75
2020-03-26 02:00:00 15.5 14 Norte 24 Norte 0 1012.4 -1.4 74
2020-03-26 01:00:00 15.6 20 Norte 24 Norte 0 1012.8 -1 74
2020-03-26 00:00:00 16.2 14 Norte 21 Norte 0 1013.5 0.2 72
2020-03-25 23:00:00 16.6 14 Norte 18 Norte 0 1013.8 0.9 71
2020-03-25 22:00:00 17.1 16 Norte 26 Norte 0 1013.8 1.3 69
2020-03-25 21:00:00 17.6 14 Norte 24 Nordeste 0 1013.3 1 65
2020-03-25 20:00:00 18 16 Nordeste 26 Nordeste 0 1012.9 0.6 73
2020-03-25 19:00:00 18.4 21 Nordeste 26 Nordeste 0 1012.5 0.2 72
2020-03-25 18:00:00 18.7 17 Nordeste 22 Nordeste 0 1012.3 -0.3 70
2020-03-25 17:00:00 19 15 Nordeste 28 Este 0 1012.3 -0.9 68
2020-03-25 16:00:00 19.8 20 Nordeste 35 Nordeste 0 1012.3 -1.5 66
2020-03-25 15:00:00 20.6 27 Nordeste 35 Nordeste 0 1012.6 -1.7 57
2020-03-25 14:00:00 21.8 25 Nordeste 33 Nordeste 0 1013.2 -1.3 50
2020-03-25 13:00:00 21 22 Nordeste 28 Nordeste 0 1013.8 -0.7 57
2020-03-25 12:00:00 20.3 15 Este 22 Nordeste 0 1014.3 0.3 57
2020-03-25 11:00:00 19.8 17 Este 22 Nordeste 0 1014.5 1 58
2020-03-25 10:00:00 19 11 Nordeste 17 Nordeste 0 1014.5 1.6 60
2020-03-25 09:00:00 18 12 Norte 18 Norte 0 1014 1.8 65
2020-03-25 08:00:00 16.2 12 Noroeste 15 Noroeste 0 1013.5 1.8 72
2020-03-25 07:00:00 15.3 11 Noroeste 13 Noroeste 0 1012.9 1.6 78
2020-03-25 06:00:00 15.8 11 Noroeste 21 Norte 0 1012.2 0.1 77
2020-03-25 05:00:00 15.9 18 Norte 26 Norte 0 1011.7 -0.9 76
2020-03-25 04:00:00 16 20 Norte 26 Norte 0 1011.3 -2.1 78
2020-03-25 03:00:00 16 12 Norte 22 Noroeste 0 1012.1 -1.4 75
2020-03-25 02:00:00 16.3 13 Noroeste 18 Noroeste 0 1012.6 -1.2 74
2020-03-25 01:00:00 16.5 13 Noroeste 18 Noroeste 0 1013.4 -0.3 73
2020-03-25 00:00:00 16.9 14 Noroeste 22 Norte 0 1013.5 0.2 71
2020-03-24 23:00:00 17.2 18 Noroeste 28 Noroeste 0 1013.8 1.1 70
2020-03-24 22:00:00 17.6 17 Norte 32 Noroeste 0 1013.7 1.5 66
2020-03-24 21:00:00 18.1 19 Norte 30 Norte 0 1013.3 1.7 66
2020-03-24 20:00:00 18.5 23 Noroeste 39 Noroeste 0 1012.7 1.4 62
2020-03-24 19:00:00 19.2 30 Norte 46 Noroeste 0 1012.2 0.8 59
2020-03-24 18:00:00 20.5 37 Noroeste 50 Noroeste 0 1011.6 -0.1 53
2020-03-24 17:00:00 21.3 34 Noroeste 50 Norte 0 1011.3 -0.5 49
2020-03-24 16:00:00 22.1 30 Noroeste 46 Oeste 0 1011.4 -0.9 47
2020-03-24 15:00:00 22.4 32 Noroeste 52 Noroeste 0 1011.7 -0.8 44
2020-03-24 14:00:00 22.3 29 Noroeste 54 Noroeste 0 1011.8 -0.7 47
2020-03-24 13:00:00 22.2 36 Noroeste 52 Norte 0 1012.3 0.3 45
2020-03-24 12:00:00 21.8 35 Norte 54 Norte 0 1012.5 0.8 46
2020-03-24 11:00:00 21.1 33 Noroeste 50 Norte 0 1012.5 1.1 56
2020-03-24 10:00:00 20 36 Norte 48 Norte 0 1012 1.3 60
2020-03-24 09:00:00 18.2 27 Norte 42 Noroeste 0 1011.7 1.2 69
2020-03-24 08:00:00 17 20 Noroeste 32 Norte 0 1011.4 1.5 72
2020-03-24 07:00:00 15.9 14 Noroeste 35 Norte 0 1010.7 1 74
2020-03-24 06:00:00 16.1 18 Noroeste 35 Norte 0 1010.5 0.6 71
2020-03-24 05:00:00 16 24 Noroeste 33 Noroeste 0 1009.9 -0.2 71
2020-03-24 04:00:00 16.2 24 Noroeste 33 Noroeste 0 1009.7 -0.7 70
2020-03-24 03:00:00 16 19 Norte 33 Norte 0 1009.9 -0.5 73
2020-03-24 02:00:00 16.5 24 Noroeste 35 Noroeste 0 1010.1 -0.4 74
2020-03-24 01:00:00 16.9 28 Noroeste 37 Norte 0 1010.4 0.2 68
2020-03-24 00:00:00 16.7 27 Noroeste 37 Norte 0 1010.4 1 71
2020-03-23 23:00:00 16.7 25 Noroeste 37 Norte 0 1010.5 2 73
2020-03-23 22:00:00 17.1 28 Norte 39 Norte 0 1010.2 2.3 70
2020-03-23 21:00:00 17.4 28 Norte 45 Norte 0 1009.4 2.1 72
2020-03-23 20:00:00 17.3 28 Norte 48 Norte 0 1008.5 1.6 75
2020-03-23 19:00:00 18.2 35 Noroeste 48 Norte 0 1007.9 1.3 68
2020-03-23 18:00:00 19 36 Norte 54 Norte 0 1007.3 0.9 61
2020-03-23 17:00:00 19.8 35 Norte 55 Norte 0 1006.9 0.3 56
2020-03-23 16:00:00 20 36 Norte 50 Norte 0 1006.6 -0.4 55
2020-03-23 15:00:00 19.3 35 Nordeste 46 Nordeste 0 1006.4 -0.6 60
2020-03-23 14:00:00 19.2 35 Norte 54 Norte 0 1006.6 -0.2 61
2020-03-23 13:00:00 18.6 36 Norte 50 Noroeste 1.5 1007 0.6 67
2020-03-23 12:00:00 19.1 26 Norte 42 Norte 0.1 1007 1.4 55
2020-03-23 11:00:00 18.4 23 Norte 39 Norte 0 1006.8 1.5 64
2020-03-23 10:00:00 17.1 23 Norte 30 Norte 0 1006.4 1.6 68
2020-03-23 09:00:00 15.7 11 Norte 22 Norte 0 1005.6 1.2 75
2020-03-23 08:00:00 14 10 Oeste 13 Oeste 0 1005.3 0.8 81
2020-03-23 07:00:00 13.8 6 Norte 21 Oeste 0 1004.8 0.2 82
2020-03-23 06:00:00 13.7 6 Noroeste 18 Oeste 0 1004.4 -0.7 79
2020-03-23 05:00:00 14.5 19 Oeste 30 Oeste 0 1004.5 -1.4 73
2020-03-23 04:00:00 14.8 11 Oeste 21 Noroeste 0 1004.6 -2.1 79
2020-03-23 03:00:00 15 12 Noroeste 18 Oeste 0 1005.1 -2.1 79
2020-03-23 02:00:00 14.9 5 Sudeste 32 Oeste 0 1005.9 -1.9 79
2020-03-23 01:00:00 15.7 12 Noroeste 37 Noroeste 0 1006.7 -1.9 82
2020-03-23 00:00:00 15.9 8 Sur 18 Oeste 0.1 1007.2 -1.6 82
2020-03-22 23:00:00 16.5 7 Oeste 13 Oeste 0 1007.8 -0.6 82
2020-03-22 22:00:00 15.6 7 Noroeste 22 Noroeste 0.2 1008.6 0.2 86
2020-03-22 21:00:00 15.1 9 Noroeste 39 Oeste 4.5 1008.8 0.6 86
2020-03-22 20:00:00 16.7 10 Oeste 32 Noroeste 0 1008.4 -0.1 82
2020-03-22 19:00:00 16.3 23 Noroeste 54 Noroeste 1.3 1008.4 -0.5 86
2020-03-22 18:00:00 20.4 27 Oeste 41 Oeste 0 1008.2 -1.6 53
2020-03-22 17:00:00 21 23 Oeste 39 Noroeste 0 1008.5 -2.1 50
2020-03-22 16:00:00 21.1 27 Oeste 42 Noroeste 0 1008.9 -2.5 49
2020-03-22 15:00:00 21.4 24 Oeste 42 Oeste 0 1009.8 -2.5 45
2020-03-22 14:00:00 21.3 23 Noroeste 39 Noroeste 0 1010.6 -2.6 46
2020-03-22 13:00:00 21.6 21 Oeste 37 Oeste 0 1011.4 -2.1 40
2020-03-22 12:00:00 20.7 19 Oeste 42 Oeste 0 1012.3 -1 44
2020-03-22 11:00:00 19.6 15 Noroeste 26 Noroeste 0 1013.2 0 46
2020-03-22 10:00:00 18.3 15 Norte 35 Noroeste 0 1013.5 0.6 55
2020-03-22 09:00:00 17.5 18 Noroeste 28 Norte 0 1013.3 0.3 62
2020-03-22 08:00:00 16.7 15 Noroeste 32 Noroeste 0 1013.2 0.1 64
2020-03-22 07:00:00 16.1 13 Noroeste 21 Noroeste 0 1012.9 -0.5 64
2020-03-22 06:00:00 16 18 Norte 24 Norte 0 1013 -1.1 65
2020-03-22 05:00:00 15.9 14 Noroeste 24 Norte 0 1013.1 -1.7 63
2020-03-22 04:00:00 15.5 18 Norte 32 Norte 0 1013.4 -2 61
2020-03-22 03:00:00 16 17 Norte 26 Norte 0 1014.1 -1.6 61
2020-03-22 02:00:00 16.1 18 Norte 32 Norte 0 1014.8 -1.4 59
2020-03-22 01:00:00 16.5 20 Norte 33 Norte 0 1015.4 -1.1 60
2020-03-22 00:00:00 16.8 20 Norte 32 Norte 0 1015.7 -0.3 61
2020-03-21 23:00:00 16.6 21 Norte 33 Norte 0 1016.2 0.6 57
2020-03-21 22:00:00 17 24 Norte 37 Norte 0 1016.5 1.1 57
2020-03-21 21:00:00 17.3 29 Norte 39 Norte 0 1016 0.7 56
2020-03-21 20:00:00 17.4 24 Norte 42 Norte 0 1015.6 0.4 57
2020-03-21 19:00:00 18.2 32 Norte 42 Norte 0 1015.4 0 54
2020-03-21 18:00:00 18.8 30 Norte 45 Norte 0 1015.3 -0.6 49
2020-03-21 17:00:00 19.9 32 Norte 46 Norte 0 1015.2 -1.5 44
2020-03-21 16:00:00 20.8 35 Norte 59 Norte 0 1015.4 -2.2 39
2020-03-21 15:00:00 21 31 Norte 50 Norte 0 1015.9 -2.4 38
2020-03-21 14:00:00 20.6 26 Norte 41 Norte 0 1016.7 -1.9 42
2020-03-21 13:00:00 19.9 32 Norte 45 Norte 0 1017.6 -0.8 47
2020-03-21 12:00:00 19.8 27 Nordeste 46 Norte 0 1018.3 0.4 46
2020-03-21 11:00:00 19 28 Norte 46 Norte 0 1018.6 1.2 45
2020-03-21 10:00:00 18.2 26 Norte 39 Norte 0 1018.4 1.4 53
2020-03-21 09:00:00 17.6 24 Norte 35 Norte 0 1017.9 1.3 55
2020-03-21 08:00:00 16.7 23 Norte 41 Norte 0 1017.4 1.2 50
2020-03-21 07:00:00 16.7 23 Norte 33 Norte 0 1017 1 57
2020-03-21 06:00:00 16.6 24 Norte 39 Norte 0 1016.6 0.5 54
2020-03-21 05:00:00 16.5 26 Norte 41 Norte 0 1016.2 -0.2 56
2020-03-21 04:00:00 16.8 28 Norte 39 Norte 0 1016 -1.3 57
2020-03-21 03:00:00 16.6 24 Norte 33 Norte 0 1016.1 -1.6 69
2020-03-21 02:00:00 16.3 22 Norte 33 Norte 0 1016.4 -1.6 72
2020-03-21 01:00:00 17.1 14 Norte 26 Nordeste 0 1017.3 -0.5 76
2020-03-21 00:00:00 17.2 19 Norte 28 Norte 0 1017.7 0.9 75
2020-03-20 23:00:00 17.4 20 Norte 28 Norte 0 1018 1.7 73
2020-03-20 22:00:00 17.6 23 Norte 33 Norte 0 1017.8 2.1 74
2020-03-20 21:00:00 17.8 22 Norte 33 Norte 0 1016.8 1.5 72
2020-03-20 20:00:00 18.5 21 Norte 32 Norte 0 1016.3 1.2 72
2020-03-20 19:00:00 19.4 28 Norte 41 Norte 0 1015.7 0.9 61
2020-03-20 18:00:00 20.8 30 Norte 45 Norte 0 1015.3 0.4 54
2020-03-20 17:00:00 22.1 31 Norte 45 Norte 0 1015.1 -0.2 49
2020-03-20 16:00:00 22.4 32 Norte 45 Norte 0 1014.8 -1.1 49
2020-03-20 15:00:00 22.4 26 Norte 45 Norte 0 1014.9 -1.5 49
2020-03-20 14:00:00 23.1 30 Norte 45 Norte 0 1015.3 -1 48
2020-03-20 13:00:00 22.5 31 Norte 45 Norte 0 1015.9 -0.1 51
2020-03-20 12:00:00 22.1 29 Norte 42 Norte 0 1016.4 1.2 56
2020-03-20 11:00:00 20.6 31 Norte 41 Norte 0 1016.3 1.9 62
2020-03-20 10:00:00 20.3 30 Norte 41 Norte 0 1016 2.6 65
2020-03-20 09:00:00 19.2 26 Norte 37 Norte 0 1015.2 2.1 70
2020-03-20 08:00:00 18.3 24 Norte 41 Norte 0 1014.4 1.4 76
2020-03-20 07:00:00 18.2 23 Norte 45 Norte 0 1013.4 0.4 76
2020-03-20 06:00:00 18.2 21 Norte 39 Norte 0 1013.1 -0.2 76
2020-03-20 05:00:00 18.3 21 Norte 37 Norte 0 1013 -0.7 76
2020-03-20 04:00:00 18.2 21 Norte 33 Noroeste 0 1013 -1.1 77
2020-03-20 03:00:00 18.1 21 Norte 32 Norte 0 1013.3 -1.2 78
2020-03-20 02:00:00 18.2 24 Norte 39 Norte 0 1013.7 -1.2 76
2020-03-20 01:00:00 18.5 32 Norte 42 Norte 0 1014.1 -0.5 74
2020-03-20 00:00:00 18.7 30 Norte 45 Norte 0 1014.5 0.2 74
2020-03-19 23:00:00 18.8 28 Norte 45 Norte 0 1014.9 1 73
2020-03-19 22:00:00 18.6 26 Noroeste 39 Noroeste 0 1014.6 1 73
2020-03-19 21:00:00 18.9 26 Noroeste 37 Noroeste 0 1014.3 1.3 73
2020-03-19 20:00:00 19.2 25 Norte 37 Norte 0 1013.9 1.1 70
2020-03-19 19:00:00 19.7 31 Norte 45 Noroeste 0 1013.6 1 70
2020-03-19 18:00:00 20.6 30 Noroeste 45 Norte 0 1013 0.3 63
2020-03-19 17:00:00 21.2 29 Norte 48 Norte 0 1012.8 -0.1 60
2020-03-19 16:00:00 22 34 Noroeste 48 Norte 0 1012.6 -0.6 55
2020-03-19 15:00:00 22.7 33 Norte 50 Norte 0 1012.7 -1 43
2020-03-19 14:00:00 22.6 35 Norte 48 Norte 0 1012.9 -0.8 46
2020-03-19 13:00:00 21.8 30 Norte 46 Norte 0 1013.2 -0.2 50
2020-03-19 12:00:00 21 27 Norte 35 Noroeste 0 1013.7 1.1 56
2020-03-19 11:00:00 19.6 26 Nordeste 35 Nordeste 0 1013.7 2.1 64
2020-03-19 10:00:00 18.6 30 Norte 41 Norte 0 1013.4 2.2 66
2020-03-19 09:00:00 17.6 30 Norte 39 Norte 0 1012.6 2.2 77
2020-03-19 08:00:00 16.7 23 Norte 33 Noroeste 0 1011.6 1.1 83
2020-03-19 07:00:00 16.4 26 Norte 33 Norte 0.9 1011.2 0.7 84
2020-03-19 06:00:00 16.2 12 Noroeste 42 Noroeste 3.3 1010.4 -0.5 89
2020-03-19 05:00:00 17.3 31 Noroeste 48 Noroeste 0 1010.5 -1 73
2020-03-19 04:00:00 17.3 33 Noroeste 55 Noroeste 0 1010.5 -1.3 69
2020-03-19 03:00:00 16.7 32 Noroeste 50 Noroeste 0 1010.9 -1.2 65
2020-03-19 02:00:00 16.6 34 Noroeste 46 Norte 0 1011.5 -0.9 67
2020-03-19 01:00:00 16.9 38 Noroeste 50 Norte 0 1011.8 -0.9 64
2020-03-19 00:00:00 17.2 31 Noroeste 52 Noroeste 0 1012.1 -0.5 68
2020-03-18 23:00:00 17.1 29 Noroeste 42 Norte 0 1012.4 0.1 69
2020-03-18 22:00:00 17.2 32 Noroeste 46 Norte 0 1012.7 0.9 75
2020-03-18 21:00:00 18.1 28 Noroeste 58 Noroeste 0 1012.6 1 65
2020-03-18 20:00:00 17.9 37 Noroeste 54 Noroeste 0 1012.3 0.4 57
2020-03-18 19:00:00 18.4 37 Noroeste 48 Noroeste 0 1011.8 -0.3 59
2020-03-18 18:00:00 19.6 29 Noroeste 52 Noroeste 0 1011.6 -0.7 56
2020-03-18 17:00:00 20.6 36 Noroeste 54 Noroeste 0 1011.9 -1 49
2020-03-18 16:00:00 21.2 38 Norte 55 Norte 0 1012.1 -1.2 43
2020-03-18 15:00:00 21.2 35 Norte 52 Norte 0 1012.3 -1.9 46
2020-03-18 14:00:00 19.5 33 Norte 45 Norte 0 1012.9 -1.6 61
2020-03-18 13:00:00 20.4 32 Norte 59 Noroeste 0 1013.3 -1.3 51
2020-03-18 12:00:00 19.1 34 Norte 46 Norte 0 1014.2 -0.2 58
2020-03-18 11:00:00 19.9 27 Noroeste 42 Noroeste 0 1014.5 0.4 48
2020-03-18 10:00:00 19.4 28 Norte 45 Norte 0 1014.6 0.8 51
2020-03-18 09:00:00 17.8 27 Norte 37 Noroeste 0 1014.4 0.6 65
2020-03-18 08:00:00 15.7 20 Norte 30 Norte 0.1 1014.1 0.7 83
2020-03-18 07:00:00 15.2 19 Norte 46 Norte 0.1 1013.8 0.1 80
2020-03-18 06:00:00 16.4 21 Norte 30 Norte 0 1013.8 -0.1 71
2020-03-18 05:00:00 15.7 24 Noroeste 39 Noroeste 0 1013.4 -1.3 67
2020-03-18 04:00:00 15.6 24 Noroeste 52 Norte 0 1013.7 -1.4 72
2020-03-18 03:00:00 16.4 21 Norte 35 Norte 0 1013.9 -1.7 61
2020-03-18 02:00:00 16.2 17 Norte 28 Norte 0 1014.7 -1.5 55
2020-03-18 01:00:00 15.7 17 Norte 32 Norte 0 1015.1 -1.2 62
2020-03-18 00:00:00 16.2 26 Norte 45 Norte 0 1015.6 -0.4 67
2020-03-17 23:00:00 16.1 24 Norte 46 Norte 0 1016.2 0.8 64
2020-03-17 22:00:00 17.2 36 Norte 48 Norte 0 1016.3 1.4 62
2020-03-17 21:00:00 16.9 27 Norte 52 Norte 0 1016 1.5 66
2020-03-17 20:00:00 17.6 33 Norte 45 Norte 0 1015.4 1.2 61
2020-03-17 19:00:00 17.9 36 Norte 48 Norte 0 1014.9 0.7 60
2020-03-17 18:00:00 18.8 34 Norte 50 Norte 0 1014.5 0 51
2020-03-17 17:00:00 19.4 35 Norte 52 Norte 0 1014.2 -0.8 55
2020-03-17 16:00:00 19.9 36 Norte 50 Norte 0 1014.2 -1.7 55
2020-03-17 15:00:00 20 34 Norte 48 Norte 0 1014.5 -2 52
2020-03-17 14:00:00 20.4 37 Nordeste 46 Nordeste 0 1015 -1.8 52
2020-03-17 13:00:00 18.9 35 Norte 52 Nordeste 0 1015.9 -1.1 59
2020-03-17 12:00:00 19.3 37 Norte 50 Nordeste 0 1016.5 0 59
2020-03-17 11:00:00 19 37 Norte 52 Nordeste 0 1016.8 0.8 57
2020-03-17 10:00:00 17.9 36 Norte 54 Nordeste 0 1017 1 63
2020-03-17 09:00:00 17 35 Norte 55 Norte 0 1016.5 1 58
2020-03-17 08:00:00 15.7 25 Norte 42 Norte 0 1016 1 70
2020-03-17 07:00:00 15.1 37 Norte 55 Norte 0 1016 1.2 77
2020-03-17 06:00:00 15.7 34 Norte 55 Norte 0 1015.5 0.3 70
2020-03-17 05:00:00 16.8 40 Norte 54 Norte 0 1015 -0.4 58
2020-03-17 04:00:00 16.7 35 Norte 54 Norte 0 1014.8 -0.9 59
2020-03-17 03:00:00 16.8 35 Norte 59 Nordeste 0 1015.2 -1.2 64
2020-03-17 02:00:00 17 37 Nordeste 54 Norte 0 1015.4 -1.3 65
2020-03-17 01:00:00 17.2 38 Norte 55 Norte 0 1015.7 -1.1 63
2020-03-17 00:00:00 17.1 48 Norte 59 Norte 0 1016.4 0 56
2020-03-16 23:00:00 17.4 36 Norte 52 Norte 0 1016.7 0.9 58
2020-03-16 22:00:00 17.4 33 Norte 61 Norte 0 1016.8 1.5 65
2020-03-16 21:00:00 18 38 Norte 50 Norte 0 1016.4 1.3 69
2020-03-16 20:00:00 18.2 39 Norte 52 Norte 0 1015.8 0.9 69
2020-03-16 19:00:00 18.1 42 Nordeste 52 Nordeste 0 1015.3 0.7 72
2020-03-16 18:00:00 19.2 41 Nordeste 52 Nordeste 0 1015.1 0.3 67
2020-03-16 17:00:00 20 37 Nordeste 48 Nordeste 0 1014.9 -0.4 64
2020-03-16 16:00:00 19.6 37 Nordeste 52 Nordeste 0 1014.6 -1.4 71
2020-03-16 15:00:00 20.6 32 Nordeste 42 Nordeste 0 1014.8 -1.7 66
2020-03-16 14:00:00 21 32 Nordeste 45 Nordeste 0 1015.3 -1.4 62
2020-03-16 13:00:00 21.8 36 Nordeste 46 Nordeste 0 1016 -0.6 58
2020-03-16 12:00:00 22 37 Nordeste 50 Nordeste 0 1016.5 0.2 48
2020-03-16 11:00:00 21.1 36 Norte 50 Norte 0 1016.7 0.8 56
2020-03-16 10:00:00 19.8 38 Norte 48 Norte 0 1016.6 1.2 60
2020-03-16 09:00:00 19.2 31 Norte 42 Norte 0 1016.3 1.4 65
2020-03-16 08:00:00 17.8 30 Norte 39 Norte 0 1015.9 1.2 69
2020-03-16 07:00:00 17.4 30 Norte 39 Norte 0 1015.4 0.5 73
2020-03-16 06:00:00 17.7 27 Norte 41 Norte 0 1014.9 0 68
2020-03-16 05:00:00 17.8 29 Norte 45 Norte 0 1014.7 -0.6 68
2020-03-16 04:00:00 17.7 28 Norte 39 Norte 0 1014.9 -0.7 72
2020-03-16 03:00:00 17 20 Norte 32 Norte 0 1014.9 -0.7 73
2020-03-16 02:00:00 17.4 22 Norte 35 Norte 0 1015.3 -0.4 72
2020-03-16 01:00:00 18.2 23 Norte 35 Norte 0 1015.6 0.1 70
2020-03-16 00:00:00 17.9 24 Norte 33 Norte 0 1015.6 0.1 70
2020-03-15 23:00:00 18.2 21 Norte 35 Norte 0 1015.7 0.9 69
2020-03-15 22:00:00 17.9 32 Norte 45 Norte 0 1015.5 1.4 70
2020-03-15 21:00:00 18.4 22 Norte 33 Norte 0 1015.5 1.7 67
2020-03-15 20:00:00 18.5 28 Norte 41 Norte 0 1014.8 1.1 65
2020-03-15 19:00:00 19.1 28 Norte 41 Norte 0 1014.1 0.5 61
2020-03-15 18:00:00 20.6 32 Norte 45 Norte 0 1013.8 0.1 53
2020-03-15 17:00:00 21.6 32 Norte 50 Norte 0 1013.7 -0.4 44
2020-03-15 16:00:00 21.7 31 Norte 46 Norte 0 1013.6 -1.3 45
2020-03-15 15:00:00 21.7 31 Norte 45 Norte 0 1013.7 -1.7 47
2020-03-15 14:00:00 21.1 30 Nordeste -- -- -- 1014.1 -1.7 55
2020-03-15 13:00:00 20.8 33 Nordeste 41 Norte 0 1014.9 -0.8 55
2020-03-15 12:00:00 20.6 27 Norte 37 Nordeste 0 1015.4 0.1 50
2020-03-15 11:00:00 19.7 28 Norte 45 Norte 0 1015.8 1.1 61
2020-03-15 10:00:00 20 25 Norte 37 Norte 0 1015.7 1.5 55
2020-03-15 09:00:00 19.1 26 Norte 35 Norte 0 1015.3 1.6 59
2020-03-15 08:00:00 17.2 17 Norte 32 Norte 0 1014.7 1.1 69
2020-03-15 07:00:00 17.2 19 Norte 28 Norte 0 1014.2 0.4 73
2020-03-15 06:00:00 16.9 17 Norte 22 Norte 0 1013.7 -0.4 73
2020-03-15 05:00:00 16.2 12 Norte 17 Norte 0 1013.6 -1.2 74
2020-03-15 04:00:00 15.6 12 Norte 17 Norte 0 1013.8 -1.3 78
2020-03-15 03:00:00 16 13 Noroeste 18 Norte 0 1014.1 -1.1 77
2020-03-15 02:00:00 16.1 12 Noroeste 18 Norte 0 1014.8 -0.5 75
2020-03-15 01:00:00 16.6 15 Norte 24 Norte 0 1015.1 -0.4 73
2020-03-15 00:00:00 16.9 20 Norte 32 Norte 0 1015.2 0 74
2020-03-14 23:00:00 16.9 15 Norte 22 Norte 0 1015.3 0.7 74
2020-03-14 22:00:00 17.4 15 Norte 28 Norte 0 1015.5 1.5 69
2020-03-14 21:00:00 17.8 20 Norte 33 Norte 0 1015.2 1.3 68
2020-03-14 20:00:00 18.4 21 Norte 41 Norte 0 1014.6 0.6 66
2020-03-14 19:00:00 18.9 24 Nordeste 32 Nordeste 0 1014 0 71
2020-03-14 18:00:00 19.5 25 Nordeste 32 Nordeste 0 1013.9 -0.2 64
2020-03-14 17:00:00 20.2 23 Nordeste 30 Nordeste 0 1014 -0.6 62
2020-03-14 16:00:00 21.1 23 Nordeste 32 Nordeste 0 1014 -1.4 62
2020-03-14 15:00:00 21.2 26 Nordeste 32 Nordeste 0 1014.1 -1.9 63
2020-03-14 14:00:00 21.7 24 Nordeste 30 Nordeste 0 1014.6 -1.8 62
2020-03-14 13:00:00 21.2 20 Nordeste 32 Nordeste 0 1015.4 -1 51
2020-03-14 12:00:00 21.2 25 Nordeste 37 Norte 0 1016 -0.2 50
2020-03-14 11:00:00 20.8 28 Nordeste 42 Norte 0 1016.4 0.6 52
2020-03-14 10:00:00 20 33 Nordeste 45 Norte 0 1016.4 0.8 62
2020-03-14 09:00:00 19.2 30 Norte 37 Nordeste 0 1016.2 1 65
2020-03-14 08:00:00 17.7 28 Nordeste 39 Norte 0 1015.8 0.9 72
2020-03-14 07:00:00 17.4 30 Nordeste 41 Norte 0 1015.6 0.4 75
2020-03-14 06:00:00 17.7 30 Nordeste 39 Nordeste 0 1015.2 -0.4 72
2020-03-14 05:00:00 17.2 19 Norte 30 Norte 0 1014.9 -1.2 78
2020-03-14 04:00:00 17.3 18 Norte 37 Nordeste 0 1015.2 -1.4 78
2020-03-14 03:00:00 17.7 30 Nordeste 41 Nordeste 0 1015.6 -1.5 75
2020-03-14 02:00:00 17.9 31 Nordeste 41 Nordeste 0 1016.1 -1.2 75
2020-03-14 01:00:00 18 28 Nordeste 39 Nordeste 0 1016.6 -0.5 77
2020-03-14 00:00:00 18.1 33 Norte 42 Norte 0 1017.1 0.4 75
2020-03-13 23:00:00 18.2 31 Nordeste 45 Nordeste 0 1017.3 1.4 75
2020-03-13 22:00:00 18.5 36 Nordeste 45 Nordeste 0 1017.1 1.7 74
2020-03-13 21:00:00 18.8 33 Nordeste 42 Nordeste 0 1016.7 1.3 76
2020-03-13 20:00:00 18.9 30 Nordeste 39 Nordeste 0 1015.9 0.6 78
2020-03-13 19:00:00 19.1 30 Nordeste 37 Nordeste 0 1015.4 0 76
2020-03-13 18:00:00 19.4 26 Nordeste 35 Nordeste 0 1015.4 -0.3 73
2020-03-13 17:00:00 20.1 26 Nordeste 32 Nordeste 0 1015.3 -1 69
2020-03-13 16:00:00 20.5 25 Nordeste 32 Nordeste 0 1015.4 -1.7 67
2020-03-13 15:00:00 20.7 22 Nordeste 30 Nordeste 0 1015.7 -2 68
2020-03-13 14:00:00 20.7 23 Nordeste 30 Nordeste 0 1016.3 -1.5 67
2020-03-13 13:00:00 21 24 Nordeste 33 Nordeste 0 1017.1 -0.5 67
2020-03-13 12:00:00 20.8 25 Nordeste 32 Nordeste 0 1017.7 0.6 68
2020-03-13 11:00:00 20.2 27 Nordeste 35 Nordeste 0 1017.8 1.3 69
2020-03-13 10:00:00 19.5 27 Nordeste 37 Nordeste 0 1017.6 1.7 73
2020-03-13 09:00:00 18.8 28 Nordeste 37 Nordeste 0 1017.1 1.6 76
2020-03-13 08:00:00 18 27 Nordeste 35 Nordeste 0 1016.5 1.2 80
2020-03-13 07:00:00 17.6 26 Norte 33 Norte 0 1015.9 0.5 82
2020-03-13 06:00:00 17.5 27 Nordeste 35 Nordeste 0 1015.5 -0.2 83
2020-03-13 05:00:00 17.6 28 Nordeste 35 Norte 0 1015.3 -1 83
2020-03-13 04:00:00 17.7 27 Nordeste 35 Nordeste 0 1015.4 -1.3 83
2020-03-13 03:00:00 17.9 27 Nordeste 33 Nordeste 0 1015.7 -1 85
2020-03-13 02:00:00 18 26 Nordeste 33 Nordeste 0 1016.3 -0.2 85
2020-03-13 01:00:00 18.2 27 Nordeste 33 Nordeste 0 1016.7 0.5 87
2020-03-13 00:00:00 18.3 26 Nordeste 33 Nordeste 0 1016.7 0.8 89
2020-03-12 23:00:00 18.7 21 Nordeste 28 Nordeste 0 1016.5 1.1 89
2020-03-12 22:00:00 18.6 21 Norte 26 Norte 0 1016.2 1.2 88
2020-03-12 21:00:00 18.7 20 Nordeste 28 Norte 0 1015.9 1 88
2020-03-12 20:00:00 18.9 19 Norte 26 Norte 0 1015.4 0.9 88
2020-03-12 19:00:00 19.5 21 Nordeste 28 Norte 0 1015 0.4 86
2020-03-12 18:00:00 20.5 22 Nordeste 26 Nordeste 0 1014.9 0.2 82
2020-03-12 17:00:00 21 21 Nordeste 28 Norte 0 1014.5 -0.7 80
2020-03-12 16:00:00 21.4 21 Nordeste 28 Nordeste 0 1014.6 -1.5 78
2020-03-12 15:00:00 21.6 19 Nordeste 26 Nordeste 0 1014.7 -1.9 78
2020-03-12 14:00:00 21.7 17 Nordeste 24 Nordeste 0 1015.2 -1.4 77
2020-03-12 13:00:00 21.5 16 Nordeste 22 Nordeste 0 1016.1 -0.2 78
2020-03-12 12:00:00 21.8 13 Nordeste 21 Nordeste 0 1016.6 0.7 71
2020-03-12 11:00:00 21.7 13 Nordeste 18 Nordeste 0 1016.6 1.3 70
2020-03-12 10:00:00 21.2 11 Norte 17 Nordeste 0 1016.3 1.3 66
2020-03-12 09:00:00 20.1 10 Norte 17 Norte 0 1015.9 1.2 68
2020-03-12 08:00:00 17.1 13 Noroeste 17 Norte 0 1015.3 0.5 86
2020-03-12 07:00:00 16.3 13 Norte 21 Noroeste 0 1015 0.1 86
2020-03-12 06:00:00 16.7 17 Noroeste 22 Noroeste 0 1014.7 -0.6 90
2020-03-12 05:00:00 17.1 13 Noroeste 18 Norte 0 1014.8 -0.9 90
2020-03-12 04:00:00 17.6 14 Norte 18 Norte 0 1014.9 -1.3 90
2020-03-12 03:00:00 17.4 12 Norte 15 Norte 0 1015.3 -0.8 88
2020-03-12 02:00:00 18 8 Norte 13 Norte 0 1015.7 -0.3 89
2020-03-12 01:00:00 18.4 7 Norte 13 Norte 0 1016.2 0.7 89
2020-03-12 00:00:00 18.5 10 Norte 17 Norte 0 1016.1 1.3 91
2020-03-11 23:00:00 18.9 15 Norte 21 Norte 0 1016 1.4 91
2020-03-11 22:00:00 19 17 Nordeste 21 Nordeste 0 1015.5 1.3 93
2020-03-11 21:00:00 18.9 14 Norte 18 Norte 0 1014.8 0.9 88
2020-03-11 20:00:00 19.1 18 Norte 30 Norte 0 1014.6 0.5 90
2020-03-11 19:00:00 19.4 24 Norte 32 Norte 0 1014.2 -0.1 88
2020-03-11 18:00:00 20.1 20 Nordeste 26 Nordeste 0 1013.9 -0.9 84
2020-03-11 17:00:00 21.2 19 Nordeste 24 Nordeste 0 1014.1 -1.6 78
2020-03-11 16:00:00 21.2 16 Nordeste 21 Nordeste 0 1014.3 -2 76
2020-03-11 15:00:00 20.9 13 Nordeste 21 Nordeste 0 1014.8 -1.9 75
2020-03-11 14:00:00 20.8 13 Nordeste 18 Nordeste 0 1015.7 -1 75
2020-03-11 13:00:00 20.3 11 Nordeste 18 Nordeste 0 1016.3 -0.1 77
2020-03-11 12:00:00 20.2 12 Nordeste 21 Nordeste 0 1016.7 0.5 78
2020-03-11 11:00:00 19.8 14 Nordeste 18 Nordeste 0 1016.7 0.8 78
2020-03-11 10:00:00 19.2 14 Nordeste 21 Norte 0 1016.4 0.6 79
2020-03-11 09:00:00 18.3 14 Nordeste 21 Nordeste 0 1016.2 0.8 82
2020-03-11 08:00:00 17.5 14 Norte 22 Nordeste 0 1015.9 0.6 85
2020-03-11 07:00:00 17.2 14 Nordeste 24 Nordeste 0 1015.8 0 86
2020-03-11 06:00:00 16.8 16 Norte 22 Nordeste 0 1015.4 -0.8 85
2020-03-11 05:00:00 17.3 16 Nordeste 24 Norte 0 1015.3 -1.1 85
2020-03-11 04:00:00 17.2 19 Nordeste 26 Nordeste 0 1015.8 -0.9 85
2020-03-11 03:00:00 17.6 20 Nordeste 28 Nordeste 0 1016.2 -0.6 87
2020-03-11 02:00:00 17.6 21 Nordeste 28 Nordeste 0 1016.4 -1 89
2020-03-11 01:00:00 16.7 9 Norte 21 Norte 0 1016.7 -0.5 87
2020-03-11 00:00:00 17.3 15 Norte 21 Norte 0 1016.8 0 86
2020-03-10 23:00:00 18 14 Norte 28 Nordeste 0 1017.4 1 87
2020-03-10 22:00:00 18.4 18 Norte 26 Nordeste 0 1017.2 1.1 87
2020-03-10 21:00:00 18.6 18 Nordeste 24 Nordeste 0 1016.8 0.9 86
2020-03-10 20:00:00 18.7 17 Norte 22 Norte 0 1016.4 0.5 84
2020-03-10 19:00:00 19.4 17 Nordeste 22 Nordeste 0 1016.1 -0.1 82
2020-03-10 18:00:00 20.3 15 Nordeste 22 Nordeste 0 1015.9 -1 78
2020-03-10 17:00:00 20.7 15 Nordeste 22 Nordeste 0 1015.9 -1.5 75
2020-03-10 16:00:00 21.1 17 Nordeste 24 Nordeste 0 1016.2 -2.1 73
2020-03-10 15:00:00 21 16 Nordeste 22 Nordeste 0 1016.9 -1.8 73
2020-03-10 14:00:00 21.3 16 Nordeste 22 Nordeste 0 1017.4 -1.6 72
2020-03-10 13:00:00 21.2 17 Nordeste 24 Nordeste 0 1018.3 -0.7 71
2020-03-10 12:00:00 20.8 15 Nordeste 24 Nordeste 0 1018.7 0.2 73
2020-03-10 11:00:00 20.2 14 Nordeste 22 Nordeste 0 1019 0.9 75
2020-03-10 10:00:00 19.6 16 Nordeste 28 Norte 0 1019 1.2 80
2020-03-10 09:00:00 18.9 18 Nordeste 24 Norte 0 1018.5 0.9 84
2020-03-10 08:00:00 16.9 13 Norte 26 Norte 0 1018.1 0.8 88
2020-03-10 07:00:00 17.2 21 Norte 28 Norte 0 1017.8 0 90
2020-03-10 06:00:00 16 16 Norte 22 Norte 0 1017.6 -0.7 90
2020-03-10 05:00:00 15.7 16 Norte 22 Norte 0 1017.3 -1.5 88
2020-03-10 04:00:00 16 18 Norte 22 Norte 0 1017.8 -1.4 88
2020-03-10 03:00:00 16.8 17 Norte 37 Norte 0 1018.3 -1.1 88
2020-03-10 02:00:00 17.3 28 Norte 37 Norte 0 1018.8 -1.1 87
2020-03-10 01:00:00 17.4 25 Norte 37 Norte 0 1019.2 -0.9 87
2020-03-10 00:00:00 17.4 23 Norte 32 Norte 0 1019.4 -0.5 87
2020-03-09 23:00:00 17.7 23 Norte 33 Norte 0 1019.9 0.6 86
2020-03-09 22:00:00 18 20 Norte 32 Norte 0 1020.1 0.9 87
2020-03-09 21:00:00 18.4 23 Norte 30 Norte 0 1019.9 0.9 87
2020-03-09 20:00:00 18.7 23 Norte 33 Norte 0 1019.3 0.4 86
2020-03-09 19:00:00 19.3 26 Norte 33 Norte 0 1019.2 0.2 86
2020-03-09 18:00:00 20.1 23 Nordeste 30 Norte 0 1019 -0.7 83
2020-03-09 17:00:00 20.9 24 Nordeste 32 Nordeste 0 1018.9 -1.5 79
2020-03-09 16:00:00 21.3 19 Nordeste 28 Norte 0 1019 -2.2 78
2020-03-09 15:00:00 21.8 22 Nordeste 30 Nordeste 0 1019.7 -2.1 76
2020-03-09 14:00:00 21.5 23 Nordeste 28 Nordeste 0 1020.4 -1.6 77
2020-03-09 13:00:00 21.3 18 Nordeste 24 Nordeste 0 1021.2 -0.4 76
2020-03-09 12:00:00 21 17 Nordeste 28 Nordeste 0 1021.8 0.7 77
2020-03-09 11:00:00 20.7 19 Nordeste 26 Norte 0 1022 1.7 79
2020-03-09 10:00:00 19.9 19 Norte 28 Norte 0 1021.6 2.2 83
2020-03-09 09:00:00 18.9 18 Norte 24 Norte 0 1021.1 2.2 86
2020-03-09 08:00:00 16.9 17 Norte 30 Noroeste 0 1020.3 1.8 91
2020-03-09 07:00:00 16.2 16 Norte 21 Norte 0 1019.4 0.5 89
2020-03-09 06:00:00 16.6 15 Norte 21 Noroeste 0 1018.9 -0.7 89
2020-03-09 05:00:00 16.8 12 Noroeste 22 Norte 0 1018.5 -1.7 89
2020-03-09 04:00:00 17.5 19 Norte 30 Nordeste 0 1018.9 -1.7 89
2020-03-09 03:00:00 18.1 24 Nordeste 37 Nordeste 0 1019.6 -1 87
2020-03-09 02:00:00 18.3 28 Nordeste 35 Nordeste 0 1020.2 0.1 87
2020-03-09 01:00:00 18.4 30 Nordeste 41 Nordeste 0 1020.6 1.3 85
2020-03-09 00:00:00 18.5 30 Nordeste 41 Nordeste 0 1020.6 2 89
2020-03-08 23:00:00 18.4 27 Nordeste 37 Nordeste 0 1020.1 2.4 90
2020-03-08 22:00:00 18.5 20 Norte 30 Norte 0 1019.3 2.4 87
2020-03-08 21:00:00 18.7 22 Norte 32 Norte 0 1018.6 2.1 86
2020-03-08 20:00:00 19.1 23 Norte 32 Norte 0 1017.7 1.3 84
2020-03-08 19:00:00 19.6 23 Norte 30 Norte 0 1016.9 0.2 84
2020-03-08 18:00:00 20.5 22 Norte 28 Norte 0 1016.5 -0.8 81
2020-03-08 17:00:00 21.1 22 Nordeste 32 Nordeste 0 1016.4 -1.4 75
2020-03-08 16:00:00 21.7 25 Nordeste 33 Nordeste 0 1016.7 -1.8 75
2020-03-08 15:00:00 21.6 25 Norte 32 Nordeste 0 1017.3 -1.7 75
2020-03-08 14:00:00 21.4 22 Nordeste 28 Nordeste 0 1017.8 -1.2 76
2020-03-08 13:00:00 21.5 21 Nordeste 28 Nordeste 0 1018.5 0.4 75
2020-03-08 12:00:00 21.2 21 Nordeste 28 Nordeste 0 1019 1.8 77
2020-03-08 11:00:00 20.8 22 Nordeste 33 Nordeste 0 1019 2.6 78
2020-03-08 10:00:00 20.1 27 Nordeste 35 Norte 0 1018.1 2.4 81
2020-03-08 09:00:00 19.1 28 Norte 37 Nordeste 0 1017.2 1.8 85
2020-03-08 08:00:00 17.3 20 Norte 32 Norte 0 1016.4 1.3 90
2020-03-08 07:00:00 17.2 23 Norte 30 Norte 0 1015.7 0.7 90
2020-03-08 06:00:00 17.4 21 Norte 32 Norte 0 1015.4 0.3 88
2020-03-08 05:00:00 17.9 25 Norte 33 Nordeste 0 1015.1 -0.1 87
2020-03-08 04:00:00 18.1 25 Norte 35 Norte 0 1015 -0.6 87
2020-03-08 03:00:00 18 26 Norte 35 Norte 0 1015.1 -0.6 87
2020-03-08 02:00:00 18.1 26 Norte 35 Norte 0 1015.2 -0.8 88
2020-03-08 01:00:00 18 28 Norte 35 Norte 0 1015.6 0 87
2020-03-08 00:00:00 18.1 27 Norte 35 Norte 0 1015.7 0.4 87
2020-03-07 23:00:00 18 25 Norte 37 Nordeste 0 1016 1.7 87
2020-03-07 22:00:00 18.2 29 Nordeste 42 Norte 0 1015.6 1.9 84
2020-03-07 21:00:00 18.3 33 Nordeste 45 Nordeste 0 1015.3 1.9 82
2020-03-07 20:00:00 18.6 34 Nordeste 45 Nordeste 0 1014.3 1 80
2020-03-07 19:00:00 19 31 Nordeste 45 Nordeste 0 1013.7 0.2 79
2020-03-07 18:00:00 19.6 35 Nordeste 42 Nordeste 0 1013.4 -0.7 76
2020-03-07 17:00:00 20.6 33 Nordeste 41 Nordeste 0 1013.3 -1.7 73
2020-03-07 16:00:00 20.8 31 Nordeste 39 Nordeste 0 1013.5 -2.6 71
2020-03-07 15:00:00 21.1 32 Nordeste 41 Nordeste 0 1014.1 -3.1 66
2020-03-07 14:00:00 21.2 31 Nordeste 41 Nordeste 0 1015 -2.6 65
2020-03-07 13:00:00 20.9 35 Nordeste 45 Nordeste 0 1016.1 -1.5 64
2020-03-07 12:00:00 20.7 35 Nordeste 50 Nordeste 0 1017.2 0.2 64
2020-03-07 11:00:00 20 39 Nordeste 50 Norte 0 1017.6 1.3 65
2020-03-07 10:00:00 19.3 37 Norte 48 Nordeste 0 1017.6 2.2 68
2020-03-07 09:00:00 18.2 33 Norte 46 Nordeste 0 1017 1.8 72
2020-03-07 08:00:00 17.2 38 Norte 52 Norte 0 1016.3 1.1 76
2020-03-07 07:00:00 17.1 40 Norte 54 Norte 0 1015.4 -0.2 76
2020-03-07 06:00:00 17.1 39 Norte 55 Nordeste 0 1015.2 -0.6 76
2020-03-07 05:00:00 17.3 40 Norte 55 Norte 0 1015.2 -1.3 73
2020-03-07 04:00:00 17.3 39 Norte 58 Norte 0 1015.6 -1.3 73
2020-03-07 03:00:00 17.1 46 Norte 55 Norte 0 1015.8 -1.9 72
2020-03-07 02:00:00 17.2 46 Norte 59 Norte 0 1016.5 -1.8 71
2020-03-07 01:00:00 17.3 44 Norte 59 Norte 0 1016.9 -1.1 70
2020-03-07 00:00:00 17.4 45 Norte 63 Nordeste 0 1017.7 -0.3 70
2020-03-06 23:00:00 17.6 45 Norte 58 Nordeste 0 1018.3 0.7 71
2020-03-06 22:00:00 17.4 45 Norte 55 Norte 0 1018 0.6 70
2020-03-06 21:00:00 17.4 37 Norte 52 Norte 0 1018 0.6 68
2020-03-06 20:00:00 17.9 42 Norte 54 Norte 0 1017.6 -0.1 66
2020-03-06 19:00:00 18.6 41 Norte 54 Nordeste 0 1017.4 -0.3 66
2020-03-06 18:00:00 19.2 43 Nordeste 58 Nordeste 0 1017.4 -0.7 67
2020-03-06 17:00:00 19.8 41 Nordeste 59 Nordeste 0 1017.7 -1.3 65
2020-03-06 16:00:00 20.4 45 Nordeste 61 Nordeste 0 1017.7 -2.2 59
2020-03-06 15:00:00 20.7 45 Nordeste 63 Nordeste 0 1018.1 -2.3 60
2020-03-06 14:00:00 20.9 45 Nordeste 61 Nordeste 0 1019 -1.6 61
2020-03-06 13:00:00 20.9 48 Nordeste 61 Nordeste 0 1019.9 -0.8 59
2020-03-06 12:00:00 20.5 45 Nordeste 63 Nordeste 0 1020.4 0.3 61
2020-03-06 11:00:00 19.6 49 Nordeste 67 Nordeste 0 1020.6 1.1 61
2020-03-06 10:00:00 18.5 48 Norte 67 Nordeste 0 1020.7 1.6 66
2020-03-06 09:00:00 18 45 Norte 61 Norte 0 1020.1 1.2 67
2020-03-06 08:00:00 17.5 48 Nordeste 63 Nordeste 0 1019.5 0.7 70
2020-03-06 07:00:00 17.3 46 Norte 63 Nordeste 0 1019.1 0.2 69
2020-03-06 06:00:00 17.5 43 Norte 58 Norte 0 1018.9 -0.5 75
2020-03-06 05:00:00 17 33 Norte 52 Norte 0 1018.8 -0.9 91
2020-03-06 04:00:00 17.7 38 Norte 50 Nordeste 0.1 1018.9 -1.2 89
2020-03-06 03:00:00 18 33 Nordeste 48 Norte 0 1019.4 -1.1 88
2020-03-06 02:00:00 18.2 36 Norte 52 Norte 0 1019.7 -1.1 88
2020-03-06 01:00:00 19.2 29 Nordeste 50 Norte 0 1020.1 -0.6 82
2020-03-06 00:00:00 19.3 38 Norte 52 Nordeste 0 1020.5 0.1 77
2020-03-05 23:00:00 19.1 32 Norte 50 Nordeste 0 1020.8 1 79
2020-03-05 22:00:00 19 36 Norte 54 Nordeste 0 1020.7 1.5 77
2020-03-05 21:00:00 18.8 38 Nordeste 52 Norte 0 1020.4 1.5 73
2020-03-05 20:00:00 18.6 38 Nordeste 48 Nordeste 0 1019.8 1.2 78
2020-03-05 19:00:00 18.6 35 Nordeste 45 Nordeste 0 1019.2 0.5 78
2020-03-05 18:00:00 19.5 37 Nordeste 46 Nordeste 0 1018.9 -0.1 74
2020-03-05 17:00:00 20.4 33 Nordeste 42 Nordeste 0 1018.6 -0.7 72
2020-03-05 16:00:00 20.9 33 Nordeste 41 Nordeste 0 1018.7 -1.3 69
2020-03-05 15:00:00 21.4 32 Nordeste 41 Nordeste 0 1019 -1.4 66
2020-03-05 14:00:00 21.3 31 Nordeste 41 Nordeste 0 1019.3 -1.7 67
2020-03-05 13:00:00 21 29 Nordeste 39 Nordeste 0 1020 -0.4 68
2020-03-05 12:00:00 20.5 29 Nordeste 37 Nordeste 0 1020.4 0.6 70
2020-03-05 11:00:00 19.5 25 Nordeste 37 Norte 0 1021 1.9 72
2020-03-05 10:00:00 18.9 29 Nordeste 37 Nordeste 0 1020.4 1.8 75
2020-03-05 09:00:00 18.4 21 Nordeste 35 Norte 0 1019.8 1.8 79
2020-03-05 08:00:00 17.8 22 Norte 37 Norte 0 1019.1 1.8 81
2020-03-05 07:00:00 17.6 17 Norte 32 Nordeste 0 1018.6 1.1 84
2020-03-05 06:00:00 17.6 25 Nordeste 32 Nordeste 0 1018 -0.1 87
2020-03-05 05:00:00 17.6 27 Nordeste 37 Nordeste 0 1017.3 -1.2 86
2020-03-05 04:00:00 17.7 28 Nordeste 39 Nordeste 0 1017.5 -1.2 87
2020-03-05 03:00:00 17.5 32 Nordeste 39 Nordeste 0 1018.1 -0.7 86
2020-03-05 02:00:00 17.9 28 Nordeste 39 Nordeste 0 1018.5 -1.1 87
2020-03-05 01:00:00 18.4 31 Nordeste 39 Nordeste 0 1018.7 -0.5 85
2020-03-05 00:00:00 18.6 22 Nordeste 32 Nordeste 0 1018.8 0.1 87
2020-03-04 23:00:00 18.5 23 Nordeste 32 Nordeste 0 1019.6 1.2 87
2020-03-04 22:00:00 18.6 23 Norte 30 Nordeste 0 1019.2 1.2 87
2020-03-04 21:00:00 18.8 21 Norte 28 Nordeste 0 1018.7 1.1 87
2020-03-04 20:00:00 19 18 Norte 28 Norte 0 1018.4 1.1 87
2020-03-04 19:00:00 19.5 19 Nordeste 28 Nordeste 0 1018 0.6 85
2020-03-04 18:00:00 20.4 22 Nordeste 32 Nordeste 0 1017.6 -0.2 81
2020-03-04 17:00:00 21.5 22 Nordeste 30 Norte 0 1017.3 -0.9 76
2020-03-04 16:00:00 21.5 21 Nordeste 30 Nordeste 0 1017.4 -1.7 74
2020-03-04 15:00:00 21.8 21 Nordeste 30 Nordeste 0 1017.8 -1.7 72
2020-03-04 14:00:00 21.8 21 Nordeste 30 Nordeste 0 1018.2 -1.5 73
2020-03-04 13:00:00 22.2 21 Nordeste 26 Este 0 1019.1 -0.4 69
2020-03-04 12:00:00 22.3 9 Este 15 Este 0 1019.5 0.5 62
2020-03-04 11:00:00 21.6 12 Nordeste 30 Norte 0 1019.7 1.1 63
2020-03-04 10:00:00 21.5 24 Norte 35 Norte 0 1019.5 1.5 57
2020-03-04 09:00:00 19.9 25 Norte 32 Norte 0 1019 1.1 67
2020-03-04 08:00:00 17.2 15 Norte 26 Norte 0 1018.6 0.5 75
2020-03-04 07:00:00 16.4 17 Norte 24 Norte 0 1018 -0.4 73
2020-03-04 06:00:00 16.6 18 Norte 26 Norte 0 1017.9 -1.1 68
2020-03-04 05:00:00 16.7 16 Norte 30 Norte 0 1018.1 -1.4 74
2020-03-04 04:00:00 16.8 19 Norte 37 Norte 0 1018.4 -1.8 79
2020-03-04 03:00:00 17.4 25 Norte 32 Norte 0 1019 -1.4 80
2020-03-04 02:00:00 17.3 22 Norte 28 Norte 0 1019.5 -0.9 74
2020-03-04 01:00:00 17.7 21 Norte 28 Norte 0 1020.2 -0.4 76
2020-03-04 00:00:00 18.2 24 Norte 32 Norte 0 1020.4 -0.3 72
2020-03-03 23:00:00 18.5 25 Norte 32 Norte 0 1020.4 0.4 68
2020-03-03 22:00:00 18.5 22 Norte 30 Norte 0 1020.6 0.7 67
2020-03-03 21:00:00 18.5 13 Norte 30 Norte 0 1020.7 1.2 83
2020-03-03 20:00:00 18.8 23 Norte 30 Norte 0 1020 0.4 85
2020-03-03 19:00:00 19.3 22 Norte 33 Norte 0 1019.9 0.3 83
2020-03-03 18:00:00 20.1 24 Nordeste 32 Nordeste 0 1019.5 -0.3 78
2020-03-03 17:00:00 20.7 21 Nordeste 28 Nordeste 0 1019.6 -0.6 75
2020-03-03 16:00:00 21.1 17 Nordeste 28 Nordeste 0 1019.6 -1.3 73
2020-03-03 15:00:00 21 21 Nordeste 30 Nordeste 0 1019.8 -1.8 73
2020-03-03 14:00:00 21.2 24 Nordeste 32 Nordeste 0 1020.2 -1.6 73
2020-03-03 13:00:00 21.1 26 Nordeste 32 Nordeste 0 1020.9 -0.9 72
2020-03-03 12:00:00 20.6 24 Nordeste 32 Nordeste 0 1021.6 0.5 72
2020-03-03 11:00:00 19.8 24 Nordeste 32 Nordeste 0 1021.8 1.5 74
2020-03-03 10:00:00 19.1 23 Nordeste 35 Norte 0 1021.8 1.9 78
2020-03-03 09:00:00 18.7 29 Norte 39 Norte 0 1021.1 1.7 79
2020-03-03 08:00:00 18.4 30 Nordeste 41 Nordeste 0 1020.3 1.1 80
2020-03-03 07:00:00 18.1 29 Nordeste 37 Nordeste 0 1019.9 0.4 83
2020-03-03 06:00:00 16.7 18 Norte 24 Norte 0 1019.4 -0.3 88
2020-03-03 05:00:00 16.7 17 Norte 28 Norte 0 1019.2 -1 86
2020-03-03 04:00:00 16.9 13 Norte 21 Norte 0 1019.5 -1 85
2020-03-03 03:00:00 16.9 12 Norte 26 Norte 0 1019.7 -1.1 85
2020-03-03 02:00:00 17.3 16 Norte 30 Norte 0 1020.2 -0.8 86
2020-03-03 01:00:00 17.7 22 Norte 28 Norte 0 1020.5 -0.6 84
2020-03-03 00:00:00 17.7 21 Norte 30 Norte 0 1020.8 0.1 81
2020-03-02 23:00:00 17.8 23 Norte 30 Norte 0 1021 0.8 79
2020-03-02 22:00:00 17.9 18 Norte 30 Nordeste 0 1021.1 1.4 80
2020-03-02 21:00:00 18.6 23 Nordeste 28 Nordeste 0 1020.7 1.3 84
2020-03-02 20:00:00 18.9 23 Norte 37 Nordeste 0 1020.2 1 83
2020-03-02 19:00:00 19.6 28 Nordeste 37 Nordeste 0 1019.7 0.5 82
2020-03-02 18:00:00 20.3 27 Nordeste 41 Nordeste 0 1019.4 -0.2 77
2020-03-02 17:00:00 21 28 Nordeste 37 Nordeste 0 1019.2 -1 75
2020-03-02 16:00:00 21.8 28 Nordeste 37 Nordeste 0 1019.2 -1.8 71
2020-03-02 15:00:00 21.7 26 Nordeste 39 Nordeste 0 1019.6 -1.9 72
2020-03-02 14:00:00 22 24 Nordeste 32 Nordeste 0 1020.2 -1.5 72
2020-03-02 13:00:00 21.6 22 Nordeste 39 Nordeste 0 1021 -0.4 71
2020-03-02 12:00:00 21.8 26 Nordeste 32 Nordeste 0 1021.5 0.4 68
2020-03-02 11:00:00 21.1 22 Nordeste 28 Nordeste 0 1021.7 1.3 68
2020-03-02 10:00:00 20.6 24 Nordeste 30 Nordeste 0 1021.4 1.7 72
2020-03-02 09:00:00 19.1 18 Norte 24 Norte 0 1021.1 1.6 77
2020-03-02 08:00:00 17.9 15 Norte 21 Norte 0 1020.4 1.2 80
2020-03-02 07:00:00 18.2 16 Norte 22 Norte 0 1019.7 0.5 80
2020-03-02 06:00:00 18.1 18 Norte 26 Norte 0 1019.5 -0.2 80
2020-03-02 05:00:00 17.5 19 Norte 24 Norte 0 1019.2 -1.1 82
2020-03-02 04:00:00 17.7 15 Noroeste 22 Noroeste 0 1019.2 -1.6 80
2020-03-02 03:00:00 18.2 16 Norte 24 Norte 0 1019.7 -1.3 79
2020-03-02 02:00:00 18.9 17 Norte 26 Norte 0 1020.3 -0.5 78
2020-03-02 01:00:00 19 21 Norte 26 Norte 0 1020.8 0.7 78
2020-03-02 00:00:00 18.8 17 Norte 26 Norte 0 1021 1 77